首页
METAR-TAF:

METAR-TAF

机场 :

贝尔加莫, 意大利

纬度: 45-40N, 经度: 009-42E, 海拔: 238米

当前天气观测

该预报发布于10分钟前的08:50 UTC
风速3节,风向
温度 16°C
湿度 88%
气压 1020 hPa
能见度10公里或以上
多云层高于5000英尺
小雨

METAR: LIME 220850Z 09003KT 9999 -RA BKN050 16/14 Q1020 NOSIG

时间: 11:00 (09:00 UTC)

预报

该预报发布于4小时和0分钟前的05:00 UTC
预报有效从22日的 06点(UTC)到 23日的 06点(UTC)
风速5节,风向多变
能见度10公里或以上
多云层高于6000英尺
短暂存在
从 22日的 06点(UTC)到 22日的 09点(UTC)
短暂存在
从 23日的 03点(UTC)到 23日的 06点(UTC)
能見度: 4000
多云层高于1200英尺
多云层高于4000英尺
阵雨

TAF: LIME 220500Z 2206/2306 VRB05KT 9999 BKN060 TEMPO 2206/2209 RA TEMPO 2303/2306 4000 SHRA BKN012 BKN040

超过4000个机场的气象观测和天气预报(METAR&TAF报告)。

可查询的气象台以黄色和红色小点在地图上表示。

将鼠标移到小点上方,可查看气象台名称。

然后点击查看天气观测和预报。

如需切换地图:点击带黑十字的绿色按钮放大地图;点击带横线的绿色按钮缩小地图;或者点击绿色箭头查看邻近地区的地图。


METAR-TAF: